Time;durP1;ratioP1;P1;durP2;ratioP2;P2;SDS_P1;SDS_P2;PMS_P1;PMS_P2;Temp;Humidity;BMP_temperature;BMP_pressure;BME280_temperature;BME280_humidity;BME280_pressure;Samples;Min_cycle;Max_cycle;Signal;HPM_P1;HPM_P2
2020/12/30 00:00:47;;;;;;;7.20;2.87;;;6.80;99.90;;;;;;4994565;28;20217;-94
2020/12/30 00:03:13;;;;;;;9.97;3.13;;;6.80;99.90;;;;;;4995922;28;20587;-95
2020/12/30 00:05:38;;;;;;;7.43;2.83;;;6.90;99.90;;;;;;5011039;28;20700;-94
2020/12/30 00:08:05;;;;;;;8.53;2.90;;;7.00;99.90;;;;;;4995155;28;20189;-93
2020/12/30 00:10:31;;;;;;;12.13;3.90;;;7.00;99.90;;;;;;4995694;28;20186;-94
2020/12/30 00:12:56;;;;;;;13.87;4.87;;;7.00;99.90;;;;;;4995906;28;20646;-94
2020/12/30 00:15:22;;;;;;;18.07;6.97;;;7.00;99.90;;;;;;4978538;28;20209;-93
2020/12/30 00:17:48;;;;;;;26.53;8.10;;;7.00;99.90;;;;;;5010677;28;21126;-95
2020/12/30 00:20:17;;;;;;;18.43;7.00;;;6.90;99.90;;;;;;5011149;28;20213;-95
2020/12/30 00:22:44;;;;;;;15.90;6.00;;;6.90;99.90;;;;;;4995676;28;20181;-93
2020/12/30 00:25:10;;;;;;;18.37;5.60;;;6.90;99.90;;;;;;4993861;28;20315;-92
2020/12/30 00:27:38;;;;;;;13.30;5.93;;;6.90;99.90;;;;;;4994083;28;20198;-91
2020/12/30 00:30:17;;;;;;;16.77;6.83;;;6.80;99.90;;;;;;4993988;28;20599;-93
2020/12/30 00:32:45;;;;;;;15.87;6.20;;;6.80;99.90;;;;;;4993765;28;20193;-92
2020/12/30 00:35:12;;;;;;;17.00;6.93;;;6.70;99.90;;;;;;4995539;28;20182;-93
2020/12/30 00:37:37;;;;;;;16.73;6.90;;;6.70;99.90;;;;;;4996181;28;20240;-91
2020/12/30 00:40:05;;;;;;;28.50;10.73;;;6.60;99.90;;;;;;4996035;28;20201;-93
2020/12/30 00:42:32;;;;;;;27.20;10.00;;;6.60;99.90;;;;;;4979618;28;20257;-91
2020/12/30 00:44:59;;;;;;;27.23;9.17;;;6.50;99.90;;;;;;4978545;28;20190;-90
2020/12/30 00:47:25;;;;;;;21.47;7.90;;;6.60;99.90;;;;;;4994194;28;20205;-93
2020/12/30 00:49:51;;;;;;;12.90;6.33;;;6.50;99.90;;;;;;4995296;28;20224;-95
2020/12/30 00:52:17;;;;;;;15.27;4.73;;;6.40;99.90;;;;;;5010622;28;20657;-93
2020/12/30 00:54:42;;;;;;;10.83;4.53;;;6.40;99.90;;;;;;4993937;28;20229;-93
2020/12/30 00:57:08;;;;;;;7.57;4.33;;;6.50;99.90;;;;;;5009943;28;20554;-92
2020/12/30 00:59:34;;;;;;;11.93;4.50;;;6.50;99.90;;;;;;4993249;28;20177;-92
2020/12/30 01:01:59;;;;;;;11.50;4.77;;;6.50;99.90;;;;;;4993403;28;20186;-93
2020/12/30 01:04:25;;;;;;;17.27;6.77;;;6.50;99.90;;;;;;4994618;28;20643;-92
2020/12/30 01:06:52;;;;;;;13.17;6.17;;;6.50;99.90;;;;;;4993370;28;20174;-93
2020/12/30 01:09:18;;;;;;;12.53;5.50;;;6.40;99.90;;;;;;4993455;28;20181;-93
2020/12/30 01:11:44;;;;;;;12.60;5.43;;;6.50;99.90;;;;;;4993904;28;20313;-91
2020/12/30 01:14:10;;;;;;;12.83;5.30;;;6.50;99.90;;;;;;4977761;28;21051;-93
2020/12/30 01:16:36;;;;;;;10.77;4.30;;;6.40;99.90;;;;;;4977219;28;20193;-93
2020/12/30 01:19:04;;;;;;;11.70;4.37;;;6.50;99.90;;;;;;4977741;28;20178;-93
2020/12/30 01:21:29;;;;;;;11.47;4.53;;;6.50;99.90;;;;;;4977885;28;20194;-93
2020/12/30 01:23:55;;;;;;;18.30;5.20;;;6.40;99.90;;;;;;4993222;28;20670;-91
2020/12/30 01:26:21;;;;;;;14.97;5.70;;;6.40;99.90;;;;;;4992990;28;20725;-93
2020/12/30 01:28:46;;;;;;;12.60;5.73;;;6.40;99.90;;;;;;4961001;28;20194;-94
2020/12/30 01:31:12;;;;;;;14.47;5.27;;;6.40;99.90;;;;;;4994433;28;20214;-95
2020/12/30 01:33:38;;;;;;;15.23;7.30;;;6.30;99.90;;;;;;4994551;28;20174;-94
2020/12/30 01:36:04;;;;;;;19.87;6.70;;;6.30;99.90;;;;;;4994423;28;20269;-94
2020/12/30 01:38:32;;;;;;;20.40;8.03;;;6.20;99.90;;;;;;4993528;28;20552;-94
2020/12/30 01:40:59;;;;;;;16.77;6.23;;;6.10;99.90;;;;;;5009385;28;20181;-94
2020/12/30 01:43:24;;;;;;;21.03;7.03;;;6.20;99.90;;;;;;4994078;28;20178;-93
2020/12/30 01:45:52;;;;;;;20.70;7.70;;;5.90;99.90;;;;;;4992165;28;20273;-93
2020/12/30 01:48:21;;;;;;;23.93;8.03;;;5.90;99.90;;;;;;4992557;28;20635;-94
2020/12/30 01:50:47;;;;;;;20.03;7.43;;;5.80;99.90;;;;;;4992311;28;20215;-92
2020/12/30 01:53:14;;;;;;;25.47;8.70;;;5.70;99.90;;;;;;4992753;28;20225;-92
2020/12/30 01:55:41;;;;;;;27.33;8.83;;;5.70;99.90;;;;;;4993688;28;20186;-92
2020/12/30 01:58:11;;;;;;;15.67;6.70;;;5.60;99.90;;;;;;4992555;28;20178;-92
2020/12/30 02:00:39;;;;;;;22.43;8.50;;;5.60;99.90;;;;;;4993273;28;20181;-94
2020/12/30 02:03:07;;;;;;;14.17;5.97;;;5.40;99.90;;;;;;4993661;28;20186;-95
2020/12/30 02:05:35;;;;;;;12.70;4.83;;;5.40;99.90;;;;;;4993727;28;20534;-93
2020/12/30 02:08:05;;;;;;;8.67;3.83;;;5.30;99.90;;;;;;4976102;28;20624;-93
2020/12/30 02:10:31;;;;;;;11.97;5.70;;;5.30;99.90;;;;;;4992334;28;20240;-92
2020/12/30 02:12:58;;;;;;;17.70;5.20;;;5.30;99.90;;;;;;4993277;28;20186;-93
2020/12/30 02:15:31;;;;;;;11.60;4.90;;;5.70;99.90;;;;;;4992662;28;20189;-93
2020/12/30 02:17:58;;;;;;;9.83;4.57;;;5.20;99.90;;;;;;4993369;28;20181;-92
2020/12/30 02:20:24;;;;;;;10.13;4.80;;;6.00;99.90;;;;;;4960229;28;20189;-91
2020/12/30 02:23:11;;;;;;;17.53;6.67;;;5.40;99.90;;;;;;4975679;28;20182;-93
2020/12/30 02:25:37;;;;;;;15.83;5.33;;;5.10;99.90;;;;;;4993024;28;20295;-91
2020/12/30 02:28:03;;;;;;;8.13;4.63;;;5.10;99.90;;;;;;4960109;28;20570;-92
2020/12/30 02:30:29;;;;;;;8.90;4.47;;;5.10;99.90;;;;;;4976360;28;20722;-92
2020/12/30 02:32:54;;;;;;;11.53;4.93;;;5.10;99.90;;;;;;4993286;28;20257;-92
2020/12/30 02:35:24;;;;;;;11.87;4.60;;;5.00;99.90;;;;;;4996567;28;20181;-89
2020/12/30 02:37:50;;;;;;;10.50;4.77;;;5.00;99.90;;;;;;4997261;28;20178;-89
2020/12/30 02:40:17;;;;;;;14.00;5.73;;;5.00;99.90;;;;;;4978810;28;20377;-91
2020/12/30 02:42:42;;;;;;;13.53;6.30;;;5.00;99.90;;;;;;4995313;28;20178;-91
2020/12/30 02:45:09;;;;;;;13.77;5.90;;;5.00;99.90;;;;;;4994445;28;20514;-91
2020/12/30 02:47:35;;;;;;;12.17;6.13;;;5.00;99.90;;;;;;4959721;28;20182;-92
2020/12/30 02:50:02;;;;;;;12.50;4.93;;;4.90;99.90;;;;;;4959264;28;20235;-92
2020/12/30 02:52:27;;;;;;;12.73;4.87;;;5.00;99.90;;;;;;4993024;28;20747;-93
2020/12/30 02:54:53;;;;;;;8.87;4.60;;;5.00;99.90;;;;;;4993074;28;20181;-91
2020/12/30 02:57:19;;;;;;;13.30;5.27;;;5.10;99.90;;;;;;4975753;28;20681;-91
2020/12/30 02:59:46;;;;;;;8.53;4.30;;;5.10;99.90;;;;;;4993343;28;20532;-91
2020/12/30 03:02:11;;;;;;;9.13;4.80;;;5.00;99.90;;;;;;4963438;28;20212;-91
2020/12/30 03:04:37;;;;;;;12.53;4.53;;;5.00;99.90;;;;;;4996923;28;20205;-90
2020/12/30 03:07:03;;;;;;;18.43;6.83;;;4.90;99.90;;;;;;4996480;28;20861;-93
2020/12/30 03:09:29;;;;;;;18.70;6.00;;;4.90;99.90;;;;;;4979532;28;20189;-91
2020/12/30 03:11:54;;;;;;;15.17;4.87;;;4.90;99.90;;;;;;4963152;28;20587;-92
2020/12/30 03:14:20;;;;;;;14.73;5.67;;;4.80;99.90;;;;;;4996949;28;20541;-92
2020/12/30 03:16:47;;;;;;;25.83;9.83;;;4.80;99.90;;;;;;4963134;28;20184;-92
2020/12/30 03:19:12;;;;;;;17.87;7.47;;;4.90;99.90;;;;;;4995525;28;20198;-93
2020/12/30 03:21:38;;;;;;;18.70;7.07;;;4.90;99.90;;;;;;4996417;28;20208;-90
2020/12/30 03:24:04;;;;;;;14.13;5.40;;;4.90;99.90;;;;;;4995260;28;20666;-92
2020/12/30 03:26:32;;;;;;;12.13;5.37;;;5.00;99.90;;;;;;4991081;28;20352;-92
2020/12/30 03:29:01;;;;;;;9.90;5.20;;;4.80;99.90;;;;;;4995041;28;20265;-92
2020/12/30 03:31:27;;;;;;;18.57;6.53;;;4.80;99.90;;;;;;4996452;28;20197;-93
2020/12/30 03:33:52;;;;;;;36.37;14.73;;;4.80;99.90;;;;;;4978769;28;20649;-93
2020/12/30 03:36:18;;;;;;;65.23;25.23;;;4.90;99.90;;;;;;4995299;28;20188;-92
2020/12/30 03:38:44;;;;;;;31.97;14.70;;;4.70;99.90;;;;;;4994872;28;20185;-91
2020/12/30 03:41:09;;;;;;;30.07;12.17;;;4.70;99.90;;;;;;4994968;28;20185;-92
2020/12/30 03:43:35;;;;;;;24.53;10.90;;;5.70;99.90;;;;;;4995334;28;20680;-93
2020/12/30 03:46:00;;;;;;;25.50;11.97;;;4.60;99.90;;;;;;4994812;28;20265;-93
2020/12/30 03:48:26;;;;;;;24.90;11.63;;;4.50;99.90;;;;;;4978846;28;20220;-93
2020/12/30 03:50:52;;;;;;;24.90;11.63;;;4.50;99.90;;;;;;4994376;28;20240;-93
2020/12/30 03:53:17;;;;;;;20.27;9.97;;;4.40;99.90;;;;;;4995309;28;20639;-92
2020/12/30 03:55:43;;;;;;;14.13;7.70;;;4.40;99.90;;;;;;4995794;28;20176;-92
2020/12/30 03:58:09;;;;;;;13.90;6.87;;;4.40;99.90;;;;;;4978632;28;20239;-92
2020/12/30 04:00:34;;;;;;;12.40;6.60;;;4.40;99.90;;;;;;4994954;28;20248;-93
2020/12/30 04:03:00;;;;;;;20.30;6.90;;;4.40;99.90;;;;;;4995995;28;20204;-93
2020/12/30 04:05:25;;;;;;;14.73;8.80;;;4.40;99.90;;;;;;4978373;28;20717;-91
2020/12/30 04:07:53;;;;;;;13.23;7.63;;;4.50;99.90;;;;;;4979159;28;20233;-93
2020/12/30 04:10:18;;;;;;;13.20;6.17;;;4.40;99.90;;;;;;4995666;28;20173;-93
2020/12/30 04:12:44;;;;;;;16.87;9.83;;;4.50;99.90;;;;;;4979299;28;20732;-94
2020/12/30 04:15:10;;;;;;;14.37;7.97;;;4.60;99.90;;;;;;4998117;28;20182;-94
2020/12/30 04:17:35;;;;;;;15.80;6.90;;;4.60;99.90;;;;;;4996157;28;20184;-94
2020/12/30 04:20:01;;;;;;;9.63;5.70;;;4.60;99.90;;;;;;4995225;28;21121;-94
2020/12/30 04:22:26;;;;;;;12.47;6.20;;;4.70;99.90;;;;;;4998322;28;20343;-95
2020/12/30 04:24:52;;;;;;;10.33;5.97;;;4.70;99.90;;;;;;4982371;28;20212;-93
2020/12/30 04:27:18;;;;;;;10.07;6.00;;;4.80;99.90;;;;;;4996312;28;20674;-95
2020/12/30 04:29:43;;;;;;;9.73;4.50;;;4.70;99.90;;;;;;4978745;28;20275;-93
2020/12/30 04:32:09;;;;;;;11.60;4.20;;;4.80;99.90;;;;;;4979000;28;20224;-95
2020/12/30 04:34:34;;;;;;;7.47;3.57;;;4.70;99.90;;;;;;4979142;28;20199;-95
2020/12/30 04:37:00;;;;;;;7.83;4.30;;;4.80;99.90;;;;;;4980334;28;20185;-95
2020/12/30 04:39:26;;;;;;;11.53;4.60;;;4.90;99.90;;;;;;4962518;28;20555;-94
2020/12/30 04:41:53;;;;;;;8.73;4.60;;;5.10;99.90;;;;;;4962332;28;20694;-95
2020/12/30 04:44:20;;;;;;;7.50;5.07;;;4.70;99.90;;;;;;4994281;28;20178;-93
2020/12/30 04:46:49;;;;;;;7.30;4.53;;;4.70;99.90;;;;;;4994828;28;20178;-93
2020/12/30 04:49:15;;;;;;;6.33;4.13;;;4.60;99.90;;;;;;4961279;28;20276;-93
2020/12/30 04:51:41;;;;;;;9.10;4.00;;;4.70;99.90;;;;;;4994038;28;20251;-93
2020/12/30 04:54:08;;;;;;;7.43;4.17;;;4.60;99.90;;;;;;4977597;28;20635;-93
2020/12/30 04:57:02;;;;;;;7.50;4.27;;;4.50;99.90;;;;;;4977904;28;20188;-93
2020/12/30 04:59:49;;;;;;;6.80;3.80;;;4.60;99.90;;;;;;4994991;28;20174;-93
2020/12/30 05:02:26;;;;;;;9.53;3.93;;;4.60;99.90;;;;;;4994255;28;20221;-94
2020/12/30 05:04:52;;;;;;;17.17;5.43;;;4.60;99.90;;;;;;4995059;28;20199;-93
2020/12/30 05:07:18;;;;;;;11.37;4.70;;;4.60;99.90;;;;;;4993762;28;20185;-93
2020/12/30 05:09:44;;;;;;;5.60;3.00;;;4.60;99.90;;;;;;4995080;28;20178;-94
2020/12/30 05:12:15;;;;;;;7.83;3.90;;;4.60;99.90;;;;;;4977350;28;20210;-93
2020/12/30 05:14:41;;;;;;;10.80;5.60;;;4.70;99.90;;;;;;4997310;28;20192;-94
2020/12/30 05:17:08;;;;;;;15.43;6.60;;;4.60;99.90;;;;;;5010396;28;20212;-93
2020/12/30 05:19:35;;;;;;;11.93;8.27;;;4.60;99.90;;;;;;4995443;28;20207;-92
2020/12/30 05:22:00;;;;;;;15.43;6.83;;;4.60;99.90;;;;;;5014462;28;20195;-92
2020/12/30 05:24:28;;;;;;;15.67;6.20;;;4.60;99.90;;;;;;5000596;28;20197;-91
2020/12/30 05:26:57;;;;;;;11.63;6.43;;;4.60;99.90;;;;;;5016916;28;20276;-89
2020/12/30 05:29:27;;;;;;;15.90;7.40;;;4.60;99.90;;;;;;5018516;28;20222;-89
2020/12/30 05:31:56;;;;;;;26.87;12.53;;;4.60;99.90;;;;;;5018639;28;20233;-89
2020/12/30 05:34:24;;;;;;;43.40;19.60;;;4.60;99.90;;;;;;5018058;28;20189;-91
2020/12/30 05:36:51;;;;;;;78.87;32.43;;;4.60;99.90;;;;;;5015320;28;20197;-92
2020/12/30 05:39:33;;;;;;;66.07;27.80;;;4.80;99.90;;;;;;5017061;28;20185;-92
2020/12/30 05:42:28;;;;;;;57.40;24.33;;;4.80;99.90;;;;;;5017729;28;20169;-91
2020/12/30 05:44:55;;;;;;;47.70;17.73;;;4.60;99.90;;;;;;5013744;28;20213;-90
2020/12/30 05:47:27;;;;;;;35.83;14.80;;;4.60;99.90;;;;;;5031245;28;20334;-92
2020/12/30 05:49:55;;;;;;;41.93;17.90;;;4.50;99.90;;;;;;4992215;28;20553;-92
2020/12/30 05:52:26;;;;;;;41.77;14.60;;;4.50;99.90;;;;;;4992626;28;20221;-91
2020/12/30 05:54:55;;;;;;;44.50;16.00;;;4.50;99.90;;;;;;4993513;28;20186;-91
2020/12/30 05:57:29;;;;;;;42.40;17.33;;;4.40;99.90;;;;;;4992644;28;20192;-90
2020/12/30 06:00:07;;;;;;;38.67;16.50;;;4.40;99.90;;;;;;4991090;28;20642;-91
2020/12/30 06:02:33;;;;;;;30.90;14.23;;;4.40;99.90;;;;;;4992756;28;20842;-94
2020/12/30 06:05:22;;;;;;;36.73;15.40;;;4.40;99.90;;;;;;4992503;28;20174;-93
2020/12/30 06:07:53;;;;;;;40.40;15.70;;;4.30;99.90;;;;;;4992778;28;20185;-90
2020/12/30 06:10:20;;;;;;;46.70;18.20;;;4.30;99.90;;;;;;5000445;28;20186;-93
2020/12/30 06:12:51;;;;;;;40.57;20.10;;;4.20;99.90;;;;;;4994742;28;20243;-95
2020/12/30 06:15:23;;;;;;;49.43;20.93;;;4.20;99.90;;;;;;4993839;28;20649;-95
2020/12/30 06:18:06;;;;;;;45.20;18.37;;;4.20;99.90;;;;;;4992788;28;20197;-93
2020/12/30 06:20:36;;;;;;;49.23;17.53;;;4.20;99.90;;;;;;4992833;28;20216;-94
2020/12/30 06:23:15;;;;;;;42.90;16.90;;;4.30;99.90;;;;;;5008127;28;20199;-96
2020/12/30 06:25:42;;;;;;;45.40;17.83;;;4.30;99.90;;;;;;5001206;28;20316;-94
2020/12/30 06:28:12;;;;;;;44.37;18.13;;;4.30;99.90;;;;;;5004036;28;20369;-96
2020/12/30 06:30:40;;;;;;;44.67;17.77;;;5.40;99.90;;;;;;4999280;28;20181;-95
2020/12/30 06:33:06;;;;;;;49.87;17.80;;;4.30;99.90;;;;;;4987639;28;20305;-96
2020/12/30 06:35:34;;;;;;;58.50;20.70;;;4.30;99.90;;;;;;4998051;28;20188;-94
2020/12/30 06:38:21;;;;;;;60.03;21.93;;;4.60;99.90;;;;;;4995311;28;20189;-94
2020/12/30 06:41:00;;;;;;;70.00;21.23;;;4.30;99.90;;;;;;4994601;28;20189;-95
2020/12/30 06:43:39;;;;;;;54.43;19.80;;;4.30;99.90;;;;;;4979167;28;20199;-96
2020/12/30 06:46:09;;;;;;;47.23;17.77;;;4.60;99.90;;;;;;5007506;28;20309;-95
2020/12/30 06:49:05;;;;;;;37.67;14.70;;;4.30;99.90;;;;;;4988252;28;20197;-95
2020/12/30 06:51:45;;;;;;;43.90;15.40;;;4.20;99.90;;;;;;5041808;23;20293;-93
2020/12/30 06:54:11;;;;;;;33.87;14.47;;;5.80;99.90;;;;;;4981417;28;20689;-96
2020/12/30 06:56:39;;;;;;;36.33;13.13;;;4.30;99.90;;;;;;4978702;28;20192;-93
2020/12/30 06:59:05;;;;;;;31.03;11.80;;;4.60;99.90;;;;;;4956858;28;20545;-94
2020/12/30 07:02:04;;;;;;;32.63;12.10;;;4.20;99.90;;;;;;4961950;28;20186;-96
2020/12/30 07:04:36;;;;;;;35.00;13.03;;;4.60;99.90;;;;;;4991978;28;20181;-93
2020/12/30 07:07:21;;;;;;;21.63;8.80;;;3.50;99.90;;;;;;4992884;28;20170;-95
2020/12/30 07:09:47;;;;;;;26.57;9.30;;;4.60;99.90;;;;;;5078799;23;20245;-95
2020/12/30 07:12:13;;;;;;;17.67;7.83;;;3.70;99.90;;;;;;4997966;28;20318;-93
2020/12/30 07:14:39;;;;;;;28.10;9.30;;;4.60;99.90;;;;;;5015133;28;20211;-90
2020/12/30 07:17:07;;;;;;;37.77;11.23;;;3.60;99.90;;;;;;5012078;22;20385;-96
2020/12/30 07:19:42;;;;;;;45.23;12.90;;;4.70;99.90;;;;;;4993789;28;20181;-90
2020/12/30 07:22:14;;;;;;;39.60;11.53;;;4.60;99.90;;;;;;4984576;28;20180;-95
2020/12/30 07:24:46;;;;;;;41.97;16.07;;;5.30;99.90;;;;;;4990747;28;20187;-91
2020/12/30 07:27:14;;;;;;;49.93;21.33;;;4.40;99.90;;;;;;4967455;28;20172;-95
2020/12/30 07:29:41;;;;;;;38.37;18.53;;;5.40;99.90;;;;;;4967988;28;20202;-94
2020/12/30 07:32:08;;;;;;;23.83;12.33;;;5.20;99.90;;;;;;4979473;28;20215;-95
2020/12/30 07:34:39;;;;;;;30.77;11.80;;;4.60;99.90;;;;;;4961826;28;20281;-96
2020/12/30 07:37:08;;;;;;;21.67;11.10;;;6.00;99.90;;;;;;4989912;28;20175;-95
2020/12/30 07:39:38;;;;;;;27.43;11.17;;;6.50;99.90;;;;;;4965145;28;20203;-96
2020/12/30 07:42:08;;;;;;;19.83;10.87;;;5.90;99.90;;;;;;4986637;28;20277;-94
2020/12/30 07:44:34;;;;;;;28.33;13.13;;;6.10;99.90;;;;;;4965542;28;20275;-93
2020/12/30 07:47:02;;;;;;;68.23;25.93;;;6.00;99.90;;;;;;4983718;28;20182;-92
2020/12/30 07:49:28;;;;;;;96.77;37.47;;;6.10;99.90;;;;;;4965190;28;20186;-91
2020/12/30 07:51:56;;;;;;;90.80;38.67;;;6.20;99.90;;;;;;4983828;28;20210;-93
2020/12/30 07:54:23;;;;;;;57.07;25.33;;;6.20;99.90;;;;;;4983025;28;20281;-91
2020/12/30 07:57:00;;;;;;;44.43;19.00;;;5.70;99.90;;;;;;5011203;28;20234;-89
2020/12/30 07:59:26;;;;;;;43.77;21.60;;;6.70;99.90;;;;;;5154610;23;20235;-90
2020/12/30 08:02:07;;;;;;;41.87;18.93;;;8.10;99.90;;;;;;5010771;28;20257;-96
2020/12/30 08:04:35;;;;;;;35.70;15.40;;;6.50;99.90;;;;;;5011983;28;20201;-96
2020/12/30 08:07:05;;;;;;;42.63;18.73;;;6.50;99.90;;;;;;5021918;28;20185;-95
2020/12/30 08:09:35;;;;;;;42.30;17.53;;;6.40;99.90;;;;;;5021317;28;20173;-95
2020/12/30 08:12:19;;;;;;;43.87;16.77;;;6.50;99.90;;;;;;5017789;28;20272;-95
2020/12/30 08:14:45;;;;;;;46.03;19.47;;;6.60;99.90;;;;;;5017970;28;20185;-94
2020/12/30 08:17:15;;;;;;;37.67;16.53;;;6.90;99.90;;;;;;5021147;28;20178;-94
2020/12/30 08:19:42;;;;;;;31.73;13.30;;;6.70;99.90;;;;;;5016549;28;20204;-95
2020/12/30 08:22:10;;;;;;;62.73;21.87;;;6.90;99.90;;;;;;5016144;28;20184;-95
2020/12/30 08:24:38;;;;;;;33.33;14.43;;;6.90;99.90;;;;;;5017122;28;20526;-93
2020/12/30 08:27:05;;;;;;;28.20;12.47;;;6.90;99.90;;;;;;4998685;28;20665;-93
2020/12/30 08:29:39;;;;;;;23.97;10.70;;;7.00;99.90;;;;;;4999144;28;20173;-93
2020/12/30 08:32:15;;;;;;;24.63;11.90;;;7.00;99.90;;;;;;5016587;28;20224;-94
2020/12/30 08:34:45;;;;;;;25.03;10.57;;;7.10;99.90;;;;;;5014395;28;20218;-96
2020/12/30 08:37:16;;;;;;;43.30;14.20;;;7.20;99.90;;;;;;5016662;28;20198;-94
2020/12/30 08:40:12;;;;;;;75.13;22.47;;;7.30;99.90;;;;;;4993892;28;20201;-92
2020/12/30 08:42:52;;;;;;;74.07;19.13;;;7.30;99.90;;;;;;5015089;28;20193;-95
2020/12/30 08:45:36;;;;;;;70.83;20.50;;;7.30;99.90;;;;;;5010030;28;20189;-93
2020/12/30 08:48:19;;;;;;;71.37;20.13;;;7.40;99.90;;;;;;4996577;28;20173;-96
2020/12/30 08:50:46;;;;;;;53.57;15.67;;;7.40;99.90;;;;;;4997859;28;20669;-93
2020/12/30 08:53:12;;;;;;;73.00;18.10;;;7.40;99.90;;;;;;4996657;28;20186;-95
2020/12/30 08:55:39;;;;;;;39.33;11.07;;;7.40;99.90;;;;;;4996712;28;20173;-95
2020/12/30 08:58:05;;;;;;;33.17;10.37;;;7.50;99.90;;;;;;5016085;28;20654;-94
2020/12/30 09:00:36;;;;;;;36.23;12.47;;;7.50;99.90;;;;;;5011915;28;20229;-96
2020/12/30 09:03:15;;;;;;;38.00;12.57;;;7.60;99.90;;;;;;5012720;28;20186;-95
2020/12/30 09:05:49;;;;;;;40.23;12.67;;;7.50;99.90;;;;;;5006330;28;20189;-95
2020/12/30 09:08:21;;;;;;;30.47;10.13;;;7.60;99.90;;;;;;5002827;28;20212;-96
2020/12/30 09:10:47;;;;;;;24.73;9.93;;;7.60;99.90;;;;;;5024870;28;20165;-95
2020/12/30 09:13:15;;;;;;;16.07;6.53;;;7.60;99.90;;;;;;5025558;28;20193;-94
2020/12/30 09:15:41;;;;;;;16.07;7.07;;;7.60;99.90;;;;;;5007810;28;20260;-94
2020/12/30 09:20:42;;;;;;;18.03;6.40;;;7.60;99.90;;;;;;5078659;23;20229;-93
2020/12/30 09:23:09;;;;;;;14.83;5.67;;;6.60;99.90;;;;;;5072652;23;20328;-95
2020/12/30 09:25:40;;;;;;;11.47;5.03;;;6.40;99.90;;;;;;4994492;28;20244;-91
2020/12/30 09:28:26;;;;;;;42.03;12.97;;;6.80;99.90;;;;;;4982322;28;20205;-94
2020/12/30 09:30:53;;;;;;;36.93;14.23;;;7.90;99.90;;;;;;4996108;28;20308;-95
2020/12/30 09:33:21;;;;;;;17.53;8.50;;;7.80;99.90;;;;;;4995058;28;20231;-93
2020/12/30 09:35:51;;;;;;;15.77;6.37;;;7.80;99.90;;;;;;4983718;28;20240;-95
2020/12/30 09:38:24;;;;;;;17.20;6.50;;;8.00;99.90;;;;;;5110018;23;20241;-93
2020/12/30 09:40:54;;;;;;;19.07;8.33;;;8.00;99.90;;;;;;5005049;28;20189;-96
2020/12/30 09:43:22;;;;;;;8.33;4.33;;;7.90;99.90;;;;;;5001841;28;20167;-96
2020/12/30 09:45:55;;;;;;;14.57;5.70;;;7.70;99.90;;;;;;4984796;28;20714;-94
2020/12/30 09:48:21;;;;;;;12.67;5.67;;;7.80;99.90;;;;;;5077036;23;20309;-95
2020/12/30 09:50:48;;;;;;;17.53;6.73;;;7.70;99.90;;;;;;5088023;23;20239;-96
2020/12/30 09:53:15;;;;;;;13.77;6.27;;;9.30;99.90;;;;;;5007035;23;20182;-95
2020/12/30 09:55:45;;;;;;;10.60;6.03;;;8.80;99.90;;;;;;5035252;23;20305;-95
2020/12/30 09:58:10;;;;;;;19.10;7.93;;;7.70;99.90;;;;;;4981142;28;20186;-95
2020/12/30 10:00:36;;;;;;;14.10;5.60;;;7.70;99.90;;;;;;4972248;28;20214;-95
2020/12/30 10:03:02;;;;;;;17.20;7.27;;;7.60;99.90;;;;;;4959394;28;20564;-94
2020/12/30 10:05:28;;;;;;;16.33;7.30;;;7.60;99.90;;;;;;4961276;28;20178;-94
2020/12/30 10:07:54;;;;;;;14.13;6.40;;;7.60;99.90;;;;;;4965676;28;20182;-94
2020/12/30 10:10:20;;;;;;;12.07;5.17;;;7.60;99.90;;;;;;4985850;28;20225;-94
2020/12/30 10:12:45;;;;;;;14.90;5.87;;;7.70;99.90;;;;;;4951243;28;20320;-96
2020/12/30 10:15:12;;;;;;;4.67;3.30;;;7.70;99.90;;;;;;5071017;23;20321;-95
2020/12/30 10:20:15;;;;;;;7.93;4.43;;;7.70;99.90;;;;;;5646879;23;20225;-90
2020/12/30 10:22:42;;;;;;;8.77;3.97;;;7.80;99.90;;;;;;5397698;23;20697;-96
2020/12/30 10:25:09;;;;;;;7.47;3.40;;;7.50;99.90;;;;;;4987652;28;20186;-96
2020/12/30 10:27:35;;;;;;;7.90;3.67;;;7.80;99.90;;;;;;4960351;28;20360;-95
2020/12/30 10:30:03;;;;;;;8.40;3.17;;;7.80;99.90;;;;;;4961830;28;20242;-96
2020/12/30 10:32:29;;;;;;;11.00;4.97;;;9.50;99.90;;;;;;4976745;28;20709;-95
2020/12/30 10:34:55;;;;;;;7.27;4.07;;;7.70;99.90;;;;;;4959966;28;20270;-93
2020/12/30 10:37:20;;;;;;;9.00;4.17;;;7.70;99.90;;;;;;4968766;28;20167;-95
2020/12/30 10:39:48;;;;;;;26.83;10.97;;;7.70;99.90;;;;;;4961963;28;20232;-91
2020/12/30 10:42:16;;;;;;;12.73;6.40;;;7.70;99.90;;;;;;4961399;28;20182;-96
2020/12/30 10:44:43;;;;;;;14.17;6.70;;;7.80;99.90;;;;;;4985636;28;20201;-94
2020/12/30 10:47:09;;;;;;;13.07;7.63;;;7.60;99.90;;;;;;4987064;28;20174;-96
2020/12/30 10:49:35;;;;;;;8.13;4.90;;;7.50;99.90;;;;;;4983145;28;20205;-96
2020/12/30 10:52:01;;;;;;;10.47;4.20;;;7.40;99.90;;;;;;4973321;28;20256;-95
2020/12/30 10:54:26;;;;;;;8.40;4.57;;;7.50;99.90;;;;;;4980500;28;20201;-94
2020/12/30 10:56:53;;;;;;;12.77;6.57;;;7.40;99.90;;;;;;4980722;28;20177;-95
2020/12/30 10:59:20;;;;;;;10.17;6.33;;;7.30;99.90;;;;;;4998463;28;20177;-93
2020/12/30 11:01:50;;;;;;;13.30;8.33;;;7.20;99.90;;;;;;4985131;28;20257;-95
2020/12/30 11:04:16;;;;;;;17.10;10.17;;;7.20;99.90;;;;;;4999351;28;20183;-95
2020/12/30 11:06:42;;;;;;;14.10;8.13;;;7.00;99.90;;;;;;4993742;28;20189;-95
2020/12/30 11:09:08;;;;;;;28.63;14.47;;;7.00;99.90;;;;;;4988370;28;20234;-94
2020/12/30 11:11:34;;;;;;;35.60;19.93;;;7.00;99.90;;;;;;4971244;28;20780;-96
2020/12/30 11:14:00;;;;;;;32.27;14.73;;;6.90;99.90;;;;;;4967824;28;20702;-94
2020/12/30 11:16:26;;;;;;;24.83;15.87;;;6.80;99.90;;;;;;4973885;28;20178;-94
2020/12/30 11:18:51;;;;;;;34.80;16.73;;;6.80;99.90;;;;;;4958632;28;20179;-95
2020/12/30 11:21:17;;;;;;;34.93;15.87;;;6.80;99.90;;;;;;4981593;28;20194;-92
2020/12/30 11:23:44;;;;;;;43.43;19.90;;;6.70;99.90;;;;;;5002693;28;20225;-90
2020/12/30 11:26:09;;;;;;;39.57;17.50;;;6.70;99.90;;;;;;4981192;28;20197;-91
2020/12/30 11:28:35;;;;;;;48.50;22.57;;;6.60;99.90;;;;;;5005019;28;20217;-90
2020/12/30 11:31:01;;;;;;;46.60;18.77;;;6.60;99.90;;;;;;4968412;28;20208;-86
2020/12/30 11:33:26;;;;;;;37.93;18.47;;;6.60;99.90;;;;;;5007295;28;20181;-91
2020/12/30 11:35:52;;;;;;;51.67;18.83;;;6.60;99.90;;;;;;5013959;28;20186;-88
2020/12/30 11:38:17;;;;;;;47.80;20.33;;;6.50;99.90;;;;;;4978091;28;20234;-88
2020/12/30 11:40:43;;;;;;;60.63;24.30;;;6.50;99.90;;;;;;5022252;23;20237;-91
2020/12/30 11:43:09;;;;;;;56.53;21.63;;;6.50;99.90;;;;;;4992555;28;20170;-89
2020/12/30 11:45:34;;;;;;;59.97;23.93;;;6.50;99.90;;;;;;4998176;28;20198;-91
2020/12/30 11:48:01;;;;;;;58.87;25.20;;;6.50;99.90;;;;;;5188582;23;20251;-94
2020/12/30 11:50:29;;;;;;;55.37;21.90;;;6.40;99.90;;;;;;4973971;29;20203;-90
2020/12/30 11:52:55;;;;;;;60.17;27.57;;;6.30;99.90;;;;;;4974615;28;20222;-95
2020/12/30 11:55:22;;;;;;;67.83;31.00;;;6.40;99.90;;;;;;4968889;28;20210;-95
2020/12/30 11:57:47;;;;;;;63.20;25.50;;;6.40;99.90;;;;;;4962956;29;20274;-95
2020/12/30 12:00:13;;;;;;;69.93;27.13;;;6.40;99.90;;;;;;4979184;28;20215;-95
2020/12/30 12:02:39;;;;;;;82.27;29.83;;;6.10;99.90;;;;;;4966467;29;20193;-95
2020/12/30 12:05:09;;;;;;;101.67;32.00;;;6.40;99.90;;;;;;4959363;28;20262;-94
2020/12/30 12:07:35;;;;;;;73.13;27.90;;;6.30;99.90;;;;;;4958912;29;20179;-93
2020/12/30 12:10:00;;;;;;;44.57;20.43;;;6.30;99.90;;;;;;4973110;28;20198;-92
2020/12/30 12:12:26;;;;;;;43.40;20.43;;;6.30;99.90;;;;;;4959233;29;20211;-93
2020/12/30 12:14:52;;;;;;;36.63;15.73;;;6.30;99.90;;;;;;4973158;28;20190;-93
2020/12/30 12:17:17;;;;;;;25.10;12.73;;;6.30;99.90;;;;;;4957946;29;20186;-94
2020/12/30 12:19:43;;;;;;;40.07;17.63;;;6.30;99.90;;;;;;4973133;28;20266;-94
2020/12/30 12:22:09;;;;;;;23.23;13.30;;;6.30;99.90;;;;;;4968735;28;20191;-94
2020/12/30 12:24:50;;;;;;;42.93;18.40;;;6.30;99.90;;;;;;4978353;28;20184;-96
2020/12/30 12:27:15;;;;;;;38.63;19.07;;;6.30;99.90;;;;;;4956503;29;20533;-96
2020/12/30 12:29:43;;;;;;;29.47;16.53;;;6.30;99.90;;;;;;4962175;29;20214;-96
2020/12/30 12:32:14;;;;;;;32.73;16.33;;;6.30;99.90;;;;;;4964712;28;20611;-96
2020/12/30 12:34:42;;;;;;;33.87;15.27;;;6.30;99.90;;;;;;4961487;29;20164;-95
2020/12/30 12:37:10;;;;;;;33.53;17.07;;;6.30;99.90;;;;;;4955731;29;20222;-95
2020/12/30 12:39:37;;;;;;;42.50;20.20;;;6.30;99.90;;;;;;4957970;28;20190;-95
2020/12/30 12:42:03;;;;;;;44.57;21.87;;;6.40;99.90;;;;;;4958739;29;20209;-94
2020/12/30 12:44:30;;;;;;;42.53;21.93;;;6.40;99.90;;;;;;4958352;28;20226;-95
2020/12/30 12:46:56;;;;;;;45.50;22.97;;;6.40;99.90;;;;;;4957764;28;20700;-93
2020/12/30 12:49:22;;;;;;;44.20;22.10;;;6.40;99.90;;;;;;4959385;29;20222;-94
2020/12/30 12:51:52;;;;;;;40.50;20.03;;;6.40;99.90;;;;;;4958966;29;20207;-96
2020/12/30 12:54:19;;;;;;;40.07;21.53;;;6.40;99.90;;;;;;4959859;29;20206;-94